createdAt,value
2024-04-25T00:01:14.951Z,2.38
2024-04-25T00:03:45.145Z,2.10
2024-04-25T00:06:20.606Z,2.70
2024-04-25T00:08:53.478Z,2.50
2024-04-25T00:11:25.750Z,2.58
2024-04-25T00:13:56.590Z,3.67
2024-04-25T00:16:27.377Z,3.30
2024-04-25T00:18:58.912Z,3.10
2024-04-25T00:21:29.152Z,3.20
2024-04-25T00:24:01.829Z,3.03
2024-04-25T00:26:32.138Z,2.72
2024-04-25T00:29:03.366Z,3.20
2024-04-25T00:31:34.655Z,2.88
2024-04-25T00:34:04.709Z,2.83
2024-04-25T00:36:34.957Z,2.70
2024-04-25T00:39:07.668Z,2.65
2024-04-25T00:41:37.874Z,2.87
2024-04-25T00:44:08.166Z,2.63
2024-04-25T00:46:38.566Z,2.90
2024-04-25T00:49:09.321Z,2.70
2024-04-25T00:51:40.783Z,3.05
2024-04-25T00:54:13.771Z,3.42
2024-04-25T00:56:45.798Z,3.03
2024-04-25T00:59:16.940Z,3.22
2024-04-25T01:01:47.724Z,3.53
2024-04-25T01:04:19.166Z,3.50
2024-04-25T01:06:51.994Z,3.42
2024-04-25T01:09:24.798Z,3.53
2024-04-25T01:11:55.635Z,3.60
2024-04-25T01:14:25.927Z,3.25
2024-04-25T01:16:59.208Z,3.25
2024-04-25T01:19:29.351Z,3.75
2024-04-25T01:22:00.076Z,3.97
2024-04-25T01:24:33.054Z,3.67
2024-04-25T01:27:07.467Z,3.53
2024-04-25T01:29:38.339Z,3.42
2024-04-25T01:32:09.666Z,3.20
2024-04-25T01:34:40.198Z,3.45
2024-04-25T01:37:10.645Z,3.10
2024-04-25T01:39:40.655Z,3.53
2024-04-25T01:42:13.822Z,3.35
2024-04-25T01:44:43.866Z,3.50
2024-04-25T01:47:13.967Z,3.50
2024-04-25T01:49:44.472Z,3.22
2024-04-25T01:52:14.416Z,3.13
2024-04-25T01:54:45.887Z,3.00
2024-04-25T01:57:18.576Z,3.25
2024-04-25T01:59:49.077Z,3.63
2024-04-25T02:02:19.262Z,3.25
2024-04-25T02:04:49.886Z,3.95
2024-04-25T02:07:20.001Z,4.43
2024-04-25T02:09:50.060Z,3.30
2024-04-25T02:12:22.993Z,3.88
2024-04-25T02:14:53.046Z,3.67
2024-04-25T02:17:23.203Z,3.65
2024-04-25T02:19:53.828Z,3.92
2024-04-25T02:22:39.654Z,3.80
2024-04-25T02:25:19.010Z,3.58
2024-04-25T02:27:51.982Z,3.50
2024-04-25T02:30:22.223Z,3.60
2024-04-25T02:32:52.435Z,3.78
2024-04-25T02:35:22.686Z,3.97
2024-04-25T02:37:52.999Z,4.10
2024-04-25T02:40:23.115Z,3.53
2024-04-25T02:42:55.885Z,3.97
2024-04-25T02:45:23.239Z,4.00
2024-04-25T02:47:53.391Z,3.70
2024-04-25T02:50:21.248Z,3.72
2024-04-25T02:52:51.607Z,3.75
2024-04-25T02:55:19.866Z,4.10
2024-04-25T02:57:50.594Z,4.43
2024-04-25T03:00:20.834Z,4.35
2024-04-25T03:02:51.872Z,4.18
2024-04-25T03:05:19.607Z,4.00
2024-04-25T03:07:49.624Z,4.00
2024-04-25T03:10:17.646Z,4.55
2024-04-25T03:12:47.679Z,4.00
2024-04-25T03:15:15.122Z,3.75
2024-04-25T03:17:48.383Z,4.65
2024-04-25T03:20:16.118Z,3.90
2024-04-25T03:22:46.442Z,4.75
2024-04-25T03:25:14.152Z,4.47
2024-04-25T03:27:44.088Z,4.97
2024-04-25T03:30:12.084Z,4.32
2024-04-25T03:32:42.579Z,4.70
2024-04-25T03:35:15.654Z,4.93
2024-04-25T03:37:49.563Z,4.40
2024-04-25T03:40:19.620Z,4.10
2024-04-25T03:42:49.709Z,4.50
2024-04-25T03:45:19.796Z,4.45
2024-04-25T03:47:50.096Z,4.25
2024-04-25T03:50:23.090Z,4.60
2024-04-25T03:52:53.313Z,4.53
2024-04-25T03:55:23.625Z,4.60
2024-04-25T03:57:53.808Z,4.65
2024-04-25T04:00:21.267Z,4.47
2024-04-25T04:02:51.587Z,4.93
2024-04-25T04:05:24.895Z,4.95
2024-04-25T04:10:25.645Z,4.22
2024-04-25T04:12:55.692Z,4.45
2024-04-25T04:15:25.993Z,4.20
2024-04-25T04:17:56.104Z,3.90
2024-04-25T04:20:29.118Z,4.30
2024-04-25T04:22:59.361Z,4.30
2024-04-25T04:25:29.529Z,4.20
2024-04-25T04:27:59.639Z,4.30
2024-04-25T04:30:29.616Z,4.30
2024-04-25T04:32:59.885Z,4.53
2024-04-25T04:35:32.830Z,3.85
2024-04-25T04:38:03.782Z,4.57
2024-04-25T04:40:33.748Z,4.03
2024-04-25T04:43:03.963Z,4.55
2024-04-25T04:45:34.285Z,3.72
2024-04-25T04:48:06.149Z,3.90
2024-04-25T04:50:43.636Z,3.60
2024-04-25T04:53:13.800Z,3.60
2024-04-25T04:55:44.070Z,4.32
2024-04-25T04:58:14.389Z,3.65
2024-04-25T05:00:44.353Z,3.92
2024-04-25T05:03:15.703Z,3.60
2024-04-25T05:05:48.528Z,3.50
2024-04-25T05:08:18.991Z,3.50
2024-04-25T05:10:49.070Z,3.67
2024-04-25T05:13:19.866Z,3.67
2024-04-25T05:15:49.832Z,3.83
2024-04-25T05:18:20.499Z,3.95
2024-04-25T05:20:53.171Z,4.43
2024-04-25T05:23:23.459Z,4.57
2024-04-25T05:25:53.608Z,4.55
2024-04-25T05:28:24.196Z,4.57
2024-04-25T05:30:54.802Z,5.45
2024-04-25T05:33:25.231Z,5.25
2024-04-25T05:35:59.911Z,5.55
2024-04-25T05:38:30.535Z,5.63
2024-04-25T05:41:00.555Z,5.25
2024-04-25T05:43:30.688Z,5.50
2024-04-25T05:46:00.729Z,4.97
2024-04-25T05:48:34.309Z,5.00
2024-04-25T05:51:07.686Z,5.47
2024-04-25T05:53:37.871Z,5.68
2024-04-25T05:56:08.818Z,5.95
2024-04-25T05:58:40.597Z,5.50
2024-04-25T06:01:10.624Z,4.57
2024-04-25T06:03:40.823Z,5.63
2024-04-25T06:06:13.567Z,5.65
2024-04-25T06:08:43.858Z,5.40
2024-04-25T06:11:14.035Z,5.32
2024-04-25T06:13:44.266Z,5.00
2024-04-25T06:16:14.471Z,5.45
2024-04-25T06:18:47.101Z,4.80
2024-04-25T06:21:19.784Z,4.88
2024-04-25T06:23:50.129Z,5.07
2024-04-25T06:26:20.042Z,5.38
2024-04-25T06:28:50.020Z,6.00
2024-04-25T06:31:20.387Z,5.40
2024-04-25T06:33:50.545Z,5.80
2024-04-25T06:36:23.452Z,6.07
2024-04-25T06:38:53.630Z,6.05
2024-04-25T06:41:23.573Z,5.88
2024-04-25T06:43:55.229Z,6.03
2024-04-25T06:46:26.649Z,5.65
2024-04-25T06:48:57.748Z,5.70
2024-04-25T06:51:33.410Z,5.43
2024-04-25T06:54:03.916Z,5.03
2024-04-25T06:56:33.991Z,5.10
2024-04-25T06:59:04.081Z,4.93
2024-04-25T07:01:34.776Z,4.65
2024-04-25T07:04:04.940Z,4.55
2024-04-25T07:06:37.846Z,4.55
2024-04-25T07:09:08.847Z,4.53
2024-04-25T07:11:39.220Z,5.30
2024-04-25T07:14:09.518Z,4.47
2024-04-25T07:16:39.610Z,4.18
2024-04-25T07:19:10.205Z,4.22
2024-04-25T07:21:42.863Z,4.40
2024-04-25T07:24:13.133Z,4.18
2024-04-25T07:26:43.228Z,4.10
2024-04-25T07:29:13.434Z,4.35
2024-04-25T07:31:43.620Z,3.72
2024-04-25T07:34:13.769Z,4.63
2024-04-25T07:36:46.783Z,4.90
2024-04-25T07:39:20.936Z,3.97
2024-04-25T07:41:51.848Z,4.40
2024-04-25T07:44:22.119Z,4.80
2024-04-25T07:46:52.638Z,4.20
2024-04-25T07:49:23.181Z,4.43
2024-04-25T07:51:56.132Z,3.88
2024-04-25T07:54:26.507Z,4.55
2024-04-25T07:56:56.761Z,4.47
2024-04-25T07:59:26.912Z,4.75
2024-04-25T08:01:56.966Z,4.35
2024-04-25T08:04:27.362Z,4.05
2024-04-25T08:07:00.238Z,4.22
2024-04-25T08:09:30.907Z,4.70
2024-04-25T08:12:01.047Z,4.80
2024-04-25T08:14:31.936Z,4.40
2024-04-25T08:17:02.183Z,3.88
2024-04-25T08:19:32.717Z,4.13
2024-04-25T08:22:06.758Z,4.28
2024-04-25T08:24:37.022Z,3.90
2024-04-25T08:27:07.146Z,3.75
2024-04-25T08:29:37.234Z,3.85
2024-04-25T08:32:07.708Z,3.75
2024-04-25T08:34:37.758Z,3.92
2024-04-25T08:37:10.791Z,3.95
2024-04-25T08:39:40.830Z,3.85
2024-04-25T08:42:13.733Z,3.80
2024-04-25T08:44:44.433Z,4.20
2024-04-25T08:47:16.372Z,3.80
2024-04-25T08:49:47.803Z,3.65
2024-04-25T08:52:21.471Z,3.70
2024-04-25T08:57:26.326Z,3.88
2024-04-25T08:59:56.709Z,4.28
2024-04-25T09:02:28.609Z,4.10
2024-04-25T09:05:01.041Z,3.67
2024-04-25T09:07:33.927Z,4.05
2024-04-25T09:10:04.216Z,3.83
2024-04-25T09:12:36.037Z,4.03
2024-04-25T09:15:06.990Z,4.22
2024-04-25T09:17:39.421Z,3.83
2024-04-25T09:20:11.011Z,3.88
2024-04-25T09:22:43.822Z,4.30
2024-04-25T09:25:13.906Z,3.87
2024-04-25T09:27:44.306Z,3.78
2024-04-25T09:30:14.848Z,3.38
2024-04-25T09:32:45.843Z,3.88
2024-04-25T09:35:16.414Z,3.63
2024-04-25T09:37:49.465Z,3.60
2024-04-25T09:40:19.879Z,3.55
2024-04-25T09:42:50.401Z,3.58
2024-04-25T09:45:23.110Z,3.55
2024-04-25T09:47:57.368Z,3.70
2024-04-25T09:50:29.418Z,3.90
2024-04-25T09:53:07.398Z,3.70
2024-04-25T09:55:41.458Z,3.80
2024-04-25T09:58:16.927Z,3.40
2024-04-25T10:00:47.978Z,3.60
2024-04-25T10:03:19.919Z,3.97
2024-04-25T10:05:50.643Z,3.47
2024-04-25T10:08:23.733Z,3.38
2024-04-25T10:10:54.431Z,3.20
2024-04-25T10:13:28.289Z,3.67
2024-04-25T10:16:00.559Z,3.70
2024-04-25T10:18:31.150Z,4.03
2024-04-25T10:21:05.182Z,3.35
2024-04-25T10:23:38.564Z,3.90
2024-04-25T10:26:19.059Z,3.65
2024-04-25T10:29:04.478Z,3.63
2024-04-25T10:31:37.640Z,4.05
2024-04-25T10:34:09.285Z,4.60
2024-04-25T10:36:40.364Z,4.60
2024-04-25T10:39:19.127Z,4.38
2024-04-25T10:41:49.435Z,4.40
2024-04-25T10:44:19.755Z,4.40
2024-04-25T10:46:50.262Z,4.63
2024-04-25T10:49:21.811Z,4.85
2024-04-25T10:51:52.184Z,4.50
2024-04-25T10:54:25.125Z,4.93
2024-04-25T10:56:55.282Z,5.18
2024-04-25T10:59:31.503Z,4.85
2024-04-25T11:02:05.528Z,5.07
2024-04-25T11:04:35.939Z,5.68
2024-04-25T11:07:09.077Z,4.88
2024-04-25T11:09:42.759Z,6.72
2024-04-25T11:14:44.317Z,5.32
2024-04-25T11:17:16.936Z,6.03
2024-04-25T11:19:50.115Z,4.80
2024-04-25T11:22:30.256Z,5.22
2024-04-25T11:25:21.061Z,5.72
2024-04-25T11:27:52.504Z,5.65
2024-04-25T11:30:22.903Z,5.32
2024-04-25T11:32:53.277Z,4.80
2024-04-25T11:35:23.688Z,4.32
2024-04-25T11:37:58.450Z,4.32
2024-04-25T11:40:41.567Z,4.68
2024-04-25T11:43:11.983Z,4.28
2024-04-25T11:45:45.348Z,4.47
2024-04-25T11:48:17.778Z,4.53
2024-04-25T11:50:48.928Z,4.32
2024-04-25T11:53:19.504Z,4.60
2024-04-25T11:55:52.405Z,4.72
2024-04-25T11:58:22.494Z,4.57
2024-04-25T12:00:54.035Z,4.50
2024-04-25T12:03:24.347Z,4.25
2024-04-25T12:05:54.622Z,4.40
2024-04-25T12:08:24.914Z,4.55
2024-04-25T12:10:57.698Z,4.80
2024-04-25T12:13:27.843Z,4.50
2024-04-25T12:16:00.613Z,4.80
2024-04-25T12:18:32.420Z,4.80
2024-04-25T12:21:03.337Z,4.90
2024-04-25T12:23:35.332Z,4.55
2024-04-25T12:26:08.736Z,5.20
2024-04-25T12:28:39.486Z,5.00
2024-04-25T12:31:10.278Z,4.82
2024-04-25T12:33:41.687Z,5.72
2024-04-25T12:36:12.156Z,5.00
2024-04-25T12:38:42.492Z,5.10
2024-04-25T12:41:15.385Z,5.65
2024-04-25T12:43:46.056Z,4.97
2024-04-25T12:46:16.417Z,5.45
2024-04-25T12:48:47.112Z,5.25
2024-04-25T12:51:17.414Z,5.20
2024-04-25T12:53:47.678Z,5.38
2024-04-25T12:56:20.641Z,5.35
2024-04-25T12:58:50.901Z,5.15
2024-04-25T13:01:20.915Z,5.22
2024-04-25T13:03:53.042Z,5.13
2024-04-25T13:06:23.195Z,5.85
2024-04-25T13:08:53.242Z,5.88
2024-04-25T13:11:26.276Z,5.68
2024-04-25T13:13:56.540Z,5.43
2024-04-25T13:16:28.166Z,5.68
2024-04-25T13:18:58.624Z,6.05
2024-04-25T13:21:28.816Z,5.60
2024-04-25T13:23:59.070Z,5.97
2024-04-25T13:26:35.505Z,5.50
2024-04-25T13:29:05.888Z,5.90
2024-04-25T13:31:36.817Z,6.30
2024-04-25T13:34:07.111Z,6.50
2024-04-25T13:36:37.183Z,6.40
2024-04-25T13:39:07.510Z,6.28
2024-04-25T13:41:40.502Z,6.32
2024-04-25T13:44:10.840Z,6.40
2024-04-25T13:46:41.007Z,6.70
2024-04-25T13:49:11.145Z,6.07
2024-04-25T13:51:41.650Z,6.35
2024-04-25T13:54:11.876Z,6.20
2024-04-25T13:56:44.771Z,7.22
2024-04-25T13:59:15.098Z,6.30
2024-04-25T14:01:45.121Z,7.18
2024-04-25T14:04:15.354Z,7.25
2024-04-25T14:06:46.668Z,7.60
2024-04-25T14:09:16.847Z,7.43
2024-04-25T14:11:50.048Z,6.75
2024-04-25T14:14:22.739Z,7.40
2024-04-25T14:16:54.115Z,7.17
2024-04-25T14:19:25.170Z,7.43
2024-04-25T14:21:55.468Z,7.88
2024-04-25T14:24:28.510Z,6.80
2024-04-25T14:27:16.837Z,6.43
2024-04-25T14:29:47.007Z,6.70
2024-04-25T14:32:17.218Z,6.90
2024-04-25T14:34:48.910Z,6.72
2024-04-25T14:37:20.242Z,7.50
2024-04-25T14:39:50.580Z,7.10
2024-04-25T14:42:23.279Z,6.90
2024-04-25T14:44:53.626Z,7.13
2024-04-25T14:47:23.861Z,8.05
2024-04-25T14:49:54.212Z,7.55
2024-04-25T14:52:26.377Z,8.27
2024-04-25T14:54:56.511Z,6.93
2024-04-25T14:57:29.297Z,7.80
2024-04-25T14:59:59.535Z,7.53
2024-04-25T15:02:30.220Z,7.40
2024-04-25T15:05:00.672Z,7.50
2024-04-25T15:07:30.855Z,6.72
2024-04-25T15:10:01.230Z,6.43
2024-04-25T15:12:37.774Z,6.35
2024-04-25T15:15:14.812Z,6.40
2024-04-25T15:17:50.198Z,6.72
2024-04-25T15:20:20.657Z,5.93
2024-04-25T15:22:51.340Z,6.13
2024-04-25T15:25:21.523Z,5.55
2024-04-25T15:27:54.530Z,5.88
2024-04-25T15:30:24.884Z,6.60
2024-04-25T15:32:55.020Z,6.45
2024-04-25T15:35:25.388Z,6.32
2024-04-25T15:37:55.479Z,5.78
2024-04-25T15:40:25.597Z,5.88
2024-04-25T15:42:58.733Z,6.05
2024-04-25T15:45:28.762Z,5.93
2024-04-25T15:47:59.698Z,5.93
2024-04-25T15:50:29.963Z,6.28
2024-04-25T15:52:59.998Z,6.30
2024-04-25T15:55:30.095Z,6.15
2024-04-25T15:58:02.850Z,6.45
2024-04-25T16:00:33.241Z,6.13
2024-04-25T16:03:04.382Z,5.40
2024-04-25T16:05:34.968Z,5.45
2024-04-25T16:08:05.059Z,5.57
2024-04-25T16:10:35.131Z,5.75
2024-04-25T16:13:08.318Z,6.20
2024-04-25T16:15:38.440Z,5.95
2024-04-25T16:18:09.107Z,5.68
2024-04-25T16:20:39.307Z,5.68
2024-04-25T16:23:09.329Z,5.95
2024-04-25T16:25:40.047Z,5.57
2024-04-25T16:28:12.949Z,5.53
2024-04-25T16:30:43.108Z,5.65
2024-04-25T16:33:13.162Z,5.10
2024-04-25T16:35:43.382Z,5.40
2024-04-25T16:38:13.794Z,6.32
2024-04-25T16:40:43.822Z,5.32
2024-04-25T16:43:17.750Z,6.28
2024-04-25T16:45:53.242Z,5.78
2024-04-25T16:48:23.577Z,5.70
2024-04-25T16:50:53.989Z,6.30
2024-04-25T16:53:24.421Z,5.78
2024-04-25T16:55:55.467Z,6.55
2024-04-25T16:58:28.199Z,5.28
2024-04-25T17:00:59.372Z,5.90
2024-04-25T17:03:29.764Z,6.70
2024-04-25T17:06:00.114Z,6.07
2024-04-25T17:08:30.693Z,6.22
2024-04-25T17:11:00.860Z,6.28
2024-04-25T17:13:33.893Z,6.10
2024-04-25T17:16:04.004Z,6.63
2024-04-25T17:18:34.652Z,6.32
2024-04-25T17:21:07.575Z,7.07
2024-04-25T17:23:39.506Z,6.60
2024-04-25T17:26:11.056Z,6.55
2024-04-25T17:28:43.871Z,6.40
2024-04-25T17:31:14.001Z,6.70
2024-04-25T17:33:44.436Z,6.32
2024-04-25T17:36:14.814Z,6.72
2024-04-25T17:38:44.910Z,6.80
2024-04-25T17:41:15.674Z,6.80
2024-04-25T17:43:48.531Z,6.22
2024-04-25T17:46:18.711Z,6.80
2024-04-25T17:48:48.906Z,7.13
2024-04-25T17:51:23.090Z,6.65
2024-04-25T17:53:53.709Z,6.32
2024-04-25T17:56:23.931Z,6.15
2024-04-25T17:58:56.858Z,5.80
2024-04-25T18:01:27.404Z,6.70
2024-04-25T18:03:57.705Z,6.40
2024-04-25T18:06:27.847Z,6.15
2024-04-25T18:08:58.441Z,6.05
2024-04-25T18:11:28.472Z,5.95
2024-04-25T18:14:02.023Z,6.40
2024-04-25T18:16:33.155Z,6.40
2024-04-25T18:19:04.734Z,6.95
2024-04-25T18:21:35.112Z,6.38
2024-04-25T18:24:06.504Z,5.95
2024-04-25T18:26:37.022Z,6.00
2024-04-25T18:29:09.824Z,5.80
2024-04-25T18:31:39.933Z,6.00
2024-04-25T18:34:09.986Z,5.80
2024-04-25T18:36:40.047Z,6.28
2024-04-25T18:39:12.289Z,5.88
2024-04-25T18:41:43.212Z,5.70
2024-04-25T18:44:16.131Z,6.32
2024-04-25T18:46:46.332Z,6.28
2024-04-25T18:49:16.612Z,5.57
2024-04-25T18:51:46.746Z,6.05
2024-04-25T18:54:17.833Z,6.05
2024-04-25T18:56:45.701Z,5.82
2024-04-25T18:59:19.153Z,6.00
2024-04-25T19:01:49.720Z,5.53
2024-04-25T19:04:21.952Z,5.50
2024-04-25T19:06:53.351Z,5.35
2024-04-25T19:09:25.241Z,5.28
2024-04-25T19:11:55.684Z,5.10
2024-04-25T19:14:28.686Z,5.35
2024-04-25T19:16:59.048Z,5.43
2024-04-25T19:19:29.229Z,5.40
2024-04-25T19:21:59.732Z,5.28
2024-04-25T19:24:29.781Z,6.30
2024-04-25T19:27:00.150Z,6.38
2024-04-25T19:29:35.237Z,6.32
2024-04-25T19:32:06.658Z,6.25
2024-04-25T19:34:36.926Z,6.40
2024-04-25T19:37:07.595Z,6.25
2024-04-25T19:39:37.807Z,6.07
2024-04-25T19:42:10.882Z,6.43
2024-04-25T19:44:45.627Z,6.35
2024-04-25T19:47:15.910Z,6.50
2024-04-25T19:49:45.989Z,5.82
2024-04-25T19:52:16.897Z,6.32
2024-04-25T19:54:46.934Z,6.25
2024-04-25T19:57:21.715Z,5.80
2024-04-25T19:59:54.678Z,5.97
2024-04-25T20:02:30.921Z,6.72
2024-04-25T20:05:01.494Z,6.90
2024-04-25T20:07:32.057Z,6.45
2024-04-25T20:10:02.799Z,5.85
2024-04-25T20:12:33.237Z,6.70
2024-04-25T20:15:06.154Z,6.90
2024-04-25T20:17:52.170Z,6.53
2024-04-25T20:20:38.090Z,6.45
2024-04-25T20:23:08.539Z,6.63
2024-04-25T20:25:38.643Z,5.95
2024-04-25T20:28:09.203Z,6.40
2024-04-25T20:30:41.989Z,6.38
2024-04-25T20:33:12.442Z,6.40
2024-04-25T20:35:42.720Z,6.20
2024-04-25T20:38:12.981Z,6.13
2024-04-25T20:40:43.120Z,5.72
2024-04-25T20:43:13.180Z,5.47
2024-04-25T20:45:46.160Z,5.53
2024-04-25T20:48:16.350Z,5.40
2024-04-25T20:50:46.888Z,5.68
2024-04-25T20:53:16.855Z,5.30
2024-04-25T20:55:47.490Z,5.68
2024-04-25T20:58:17.508Z,6.13
2024-04-25T21:00:50.407Z,5.60
2024-04-25T21:03:20.576Z,5.35
2024-04-25T21:05:51.188Z,5.80
2024-04-25T21:08:21.537Z,5.32
2024-04-25T21:10:51.928Z,6.15
2024-04-25T21:13:21.921Z,6.13
2024-04-25T21:15:57.404Z,5.95
2024-04-25T21:18:27.454Z,5.65
2024-04-25T21:21:02.071Z,6.70
2024-04-25T21:23:33.853Z,6.00
2024-04-25T21:26:04.013Z,6.50
2024-04-25T21:28:33.969Z,6.20
2024-04-25T21:31:07.038Z,6.38
2024-04-25T21:33:37.090Z,5.88
2024-04-25T21:36:07.796Z,6.25
2024-04-25T21:38:38.092Z,6.18
2024-04-25T21:41:08.506Z,6.40
2024-04-25T21:43:40.316Z,6.47
2024-04-25T21:46:13.685Z,6.05
2024-04-25T21:48:50.052Z,6.38
2024-04-25T21:51:22.238Z,5.97
2024-04-25T21:53:52.314Z,6.13
2024-04-25T21:56:22.472Z,5.85
2024-04-25T21:58:52.752Z,5.65
2024-04-25T22:01:28.102Z,5.43
2024-04-25T22:03:59.677Z,5.20
2024-04-25T22:06:30.152Z,6.25
2024-04-25T22:09:00.473Z,5.90
2024-04-25T22:11:30.529Z,5.88
2024-04-25T22:14:00.633Z,6.28
2024-04-25T22:16:33.445Z,5.57
2024-04-25T22:19:03.954Z,6.03
2024-04-25T22:21:34.544Z,5.93
2024-04-25T22:24:04.869Z,5.93
2024-04-25T22:26:34.998Z,5.25
2024-04-25T22:29:05.674Z,5.57
2024-04-25T22:31:38.354Z,5.50
2024-04-25T22:34:08.589Z,5.05
2024-04-25T22:36:38.856Z,5.43
2024-04-25T22:39:08.938Z,5.43
2024-04-25T22:41:39.093Z,5.65
2024-04-25T22:44:06.456Z,5.53
2024-04-25T22:46:39.478Z,5.70
2024-04-25T22:49:09.842Z,5.43
2024-04-25T22:51:41.333Z,5.07
2024-04-25T22:54:11.616Z,5.68
2024-04-25T22:56:41.821Z,5.40
2024-04-25T22:59:11.908Z,5.50
2024-04-25T23:01:45.165Z,4.85
2024-04-25T23:04:16.055Z,5.13
2024-04-25T23:06:46.166Z,4.68
2024-04-25T23:09:16.263Z,4.95
2024-04-25T23:11:46.459Z,5.25
2024-04-25T23:14:16.775Z,4.78
2024-04-25T23:16:50.366Z,4.88
2024-04-25T23:19:20.443Z,4.82
2024-04-25T23:21:50.482Z,4.72
2024-04-25T23:24:20.610Z,4.45
2024-04-25T23:26:50.651Z,4.78
2024-04-25T23:29:18.035Z,4.55
2024-04-25T23:31:51.656Z,4.72
2024-04-25T23:36:51.629Z,4.55
2024-04-25T23:39:21.897Z,5.55
2024-04-25T23:41:52.127Z,5.68
2024-04-25T23:44:22.192Z,5.00
2024-04-25T23:46:55.058Z,5.43
2024-04-25T23:49:25.130Z,5.18
2024-04-25T23:51:55.212Z,4.85
2024-04-25T23:54:25.326Z,5.70
2024-04-25T23:56:55.502Z,5.53
2024-04-25T23:59:25.875Z,6.20
